Time;durP1;ratioP1;P1;durP2;ratioP2;P2;SDS_P1;SDS_P2;PMS_P1;PMS_P2;Temp;Humidity;BMP_temperature;BMP_pressure;BME280_temperature;BME280_humidity;BME280_pressure;Samples;Min_cycle;Max_cycle;Signal;HPM_P1;HPM_P2
2021/05/26 00:00:54;;;;;;;9.07;2.10;;;9.90;99.90;;;;;;5065769;23;20588;-83
2021/05/26 00:03:20;;;;;;;8.27;2.30;;;9.80;99.90;;;;;;5049416;28;20465;-83
2021/05/26 00:05:48;;;;;;;7.80;2.07;;;9.70;99.90;;;;;;5045429;28;20442;-82
2021/05/26 00:08:24;;;;;;;7.23;2.93;;;9.70;99.90;;;;;;5038976;28;20827;-83
2021/05/26 00:10:50;;;;;;;8.00;2.23;;;9.60;99.90;;;;;;5037411;28;20465;-83
2021/05/26 00:13:17;;;;;;;7.03;2.37;;;9.50;99.90;;;;;;5040421;28;20448;-83
2021/05/26 00:15:43;;;;;;;8.00;2.60;;;9.50;99.90;;;;;;5041544;28;20512;-84
2021/05/26 00:18:09;;;;;;;8.73;2.30;;;9.40;99.90;;;;;;5042200;28;20485;-84
2021/05/26 00:20:36;;;;;;;11.20;2.80;;;9.30;99.90;;;;;;5042018;28;20476;-84
2021/05/26 00:23:02;;;;;;;8.93;2.50;;;9.20;99.90;;;;;;5040334;28;20481;-86
2021/05/26 00:25:29;;;;;;;7.90;2.57;;;9.20;99.90;;;;;;5040891;28;20563;-84
2021/05/26 00:27:58;;;;;;;8.83;2.90;;;9.20;99.90;;;;;;5036875;28;20457;-82
2021/05/26 00:30:26;;;;;;;9.50;2.43;;;9.10;99.90;;;;;;5039399;28;20476;-83
2021/05/26 00:32:53;;;;;;;5.97;1.90;;;9.10;99.90;;;;;;5038545;28;20457;-82
2021/05/26 00:35:19;;;;;;;11.40;2.77;;;9.00;99.90;;;;;;5037362;28;20463;-83
2021/05/26 00:37:45;;;;;;;7.77;2.47;;;8.90;99.90;;;;;;5039455;28;20453;-82
2021/05/26 00:40:12;;;;;;;11.93;2.77;;;8.90;99.90;;;;;;5040963;28;20892;-83
2021/05/26 00:42:39;;;;;;;9.40;2.17;;;9.00;99.90;;;;;;5038417;28;20498;-83
2021/05/26 00:45:07;;;;;;;9.73;2.70;;;8.90;99.90;;;;;;5039531;28;20470;-83
2021/05/26 00:47:41;;;;;;;7.80;2.53;;;8.90;99.90;;;;;;5040310;28;20487;-84
2021/05/26 00:50:09;;;;;;;7.57;2.40;;;8.90;99.90;;;;;;5041035;28;20495;-84
2021/05/26 00:52:36;;;;;;;7.53;2.00;;;8.80;99.90;;;;;;5040708;28;20460;-83
2021/05/26 00:55:04;;;;;;;11.80;2.67;;;8.80;99.90;;;;;;5040867;28;20536;-84
2021/05/26 00:57:30;;;;;;;9.50;2.60;;;8.80;99.90;;;;;;5038856;28;20459;-83
2021/05/26 00:59:57;;;;;;;9.40;2.60;;;8.70;99.90;;;;;;5038690;28;20614;-83
2021/05/26 01:02:24;;;;;;;8.17;2.57;;;8.80;99.90;;;;;;5037747;28;20567;-83
2021/05/26 01:04:50;;;;;;;8.27;2.10;;;8.70;99.90;;;;;;5038215;28;20565;-83
2021/05/26 01:07:17;;;;;;;8.43;2.10;;;8.70;99.90;;;;;;5039317;28;20457;-84
2021/05/26 01:09:43;;;;;;;8.83;2.10;;;8.70;99.90;;;;;;5039802;28;20448;-84
2021/05/26 01:12:10;;;;;;;10.13;2.70;;;8.60;99.90;;;;;;5039340;28;20563;-84
2021/05/26 01:14:36;;;;;;;6.67;2.70;;;8.60;99.90;;;;;;5040564;28;20453;-84
2021/05/26 01:17:03;;;;;;;8.30;2.80;;;8.60;99.90;;;;;;5043314;28;20457;-83
2021/05/26 01:19:30;;;;;;;6.83;2.20;;;8.60;99.90;;;;;;5041333;28;20489;-84
2021/05/26 01:21:57;;;;;;;7.30;2.47;;;8.60;99.90;;;;;;5020533;28;20473;-84
2021/05/26 01:24:24;;;;;;;7.63;2.83;;;8.60;99.90;;;;;;5031605;28;20556;-83
2021/05/26 01:26:50;;;;;;;7.20;2.73;;;8.60;99.90;;;;;;5042265;28;20507;-84
2021/05/26 01:29:17;;;;;;;13.43;2.43;;;8.60;99.90;;;;;;5042034;28;20448;-84
2021/05/26 01:31:44;;;;;;;9.70;3.33;;;8.70;99.90;;;;;;5043954;28;20472;-83
2021/05/26 01:34:11;;;;;;;10.50;3.00;;;8.70;99.90;;;;;;5044215;28;20582;-83
2021/05/26 01:36:40;;;;;;;9.60;2.67;;;8.80;99.90;;;;;;5044571;28;20487;-83
2021/05/26 01:39:08;;;;;;;9.70;3.30;;;9.00;99.90;;;;;;5041817;28;20510;-84
2021/05/26 01:41:34;;;;;;;10.70;3.30;;;9.10;99.90;;;;;;5041815;28;20473;-84
2021/05/26 01:44:02;;;;;;;12.33;3.20;;;9.20;99.90;;;;;;5041445;28;20457;-84
2021/05/26 01:46:28;;;;;;;10.20;3.03;;;9.30;99.90;;;;;;5040143;28;20887;-84
2021/05/26 01:48:54;;;;;;;10.87;3.00;;;9.40;99.90;;;;;;5041349;28;20547;-84
2021/05/26 01:51:21;;;;;;;8.70;2.40;;;9.60;99.90;;;;;;5040545;28;20966;-84
2021/05/26 01:53:50;;;;;;;10.90;3.50;;;9.60;99.90;;;;;;5041160;28;20513;-84
2021/05/26 01:56:18;;;;;;;9.33;2.80;;;9.70;99.90;;;;;;5041431;28;20524;-84
2021/05/26 01:58:48;;;;;;;10.03;3.70;;;9.70;99.90;;;;;;5039666;28;20491;-84
2021/05/26 02:01:16;;;;;;;12.93;3.30;;;9.80;99.90;;;;;;5038677;28;20490;-82
2021/05/26 02:03:43;;;;;;;11.87;3.50;;;9.80;99.90;;;;;;5039616;28;20454;-84
2021/05/26 02:06:11;;;;;;;9.50;2.90;;;9.90;99.90;;;;;;5039861;28;20494;-84
2021/05/26 02:08:38;;;;;;;9.47;2.90;;;9.90;99.90;;;;;;5041048;28;20449;-84
2021/05/26 02:13:49;;;;;;;11.50;3.20;;;9.90;99.90;;;;;;5020786;28;20433;-84
2021/05/26 02:16:16;;;;;;;17.70;4.10;;;9.90;99.90;;;;;;5035837;28;20548;-84
2021/05/26 02:18:42;;;;;;;13.40;4.53;;;9.80;99.90;;;;;;5040566;28;20497;-84
2021/05/26 02:21:08;;;;;;;11.40;3.40;;;9.70;99.90;;;;;;5035551;28;20472;-83
2021/05/26 02:23:35;;;;;;;11.73;3.43;;;9.60;99.90;;;;;;5039957;28;20547;-83
2021/05/26 02:26:01;;;;;;;15.83;4.20;;;9.60;99.90;;;;;;5038287;28;20452;-85
2021/05/26 02:28:27;;;;;;;12.17;4.10;;;9.50;99.90;;;;;;5038740;28;20514;-84
2021/05/26 02:30:55;;;;;;;13.83;3.60;;;9.50;99.90;;;;;;5037889;28;20491;-84
2021/05/26 02:33:21;;;;;;;10.70;3.37;;;9.50;99.90;;;;;;5037491;28;20528;-84
2021/05/26 02:35:48;;;;;;;13.80;3.80;;;9.50;99.90;;;;;;5037826;28;20457;-84
2021/05/26 02:38:14;;;;;;;11.90;4.00;;;9.60;99.90;;;;;;5038627;28;20511;-83
2021/05/26 02:40:41;;;;;;;14.60;4.10;;;9.60;99.90;;;;;;5038386;28;20477;-84
2021/05/26 02:43:07;;;;;;;10.50;3.33;;;9.60;99.90;;;;;;5037525;28;20456;-83
2021/05/26 02:45:33;;;;;;;18.57;4.17;;;9.60;99.90;;;;;;5038804;28;20540;-82
2021/05/26 02:48:01;;;;;;;10.60;3.20;;;9.60;99.90;;;;;;5037957;28;20449;-83
2021/05/26 02:50:27;;;;;;;9.57;3.40;;;9.60;99.90;;;;;;5038537;28;20481;-85
2021/05/26 02:52:53;;;;;;;12.07;3.80;;;9.60;99.90;;;;;;5040126;28;20464;-83
2021/05/26 02:55:21;;;;;;;14.47;3.47;;;9.60;99.90;;;;;;5050804;28;20473;-83
2021/05/26 02:57:48;;;;;;;9.20;3.03;;;9.70;99.90;;;;;;5050980;28;20489;-83
2021/05/26 03:00:18;;;;;;;15.47;3.70;;;9.80;99.90;;;;;;5049710;28;20996;-82
2021/05/26 03:02:46;;;;;;;11.87;3.47;;;9.80;99.90;;;;;;5049255;28;20451;-82
2021/05/26 03:05:15;;;;;;;11.63;3.80;;;9.90;99.90;;;;;;5051050;28;20509;-83
2021/05/26 03:07:42;;;;;;;14.50;4.50;;;9.90;99.90;;;;;;5048911;28;20471;-84
2021/05/26 03:10:10;;;;;;;20.90;4.57;;;9.90;99.90;;;;;;5040246;28;20455;-84
2021/05/26 03:12:36;;;;;;;15.53;3.70;;;10.00;99.90;;;;;;5038795;28;20476;-84
2021/05/26 03:15:04;;;;;;;14.43;4.20;;;10.00;99.90;;;;;;5039467;28;20516;-83
2021/05/26 03:17:30;;;;;;;11.50;4.07;;;10.10;99.90;;;;;;5039666;28;20452;-83
2021/05/26 03:19:57;;;;;;;12.13;4.50;;;10.10;99.90;;;;;;5020818;28;20485;-83
2021/05/26 03:22:25;;;;;;;15.47;3.60;;;10.00;99.90;;;;;;5018416;28;20856;-83
2021/05/26 03:24:52;;;;;;;13.40;4.33;;;10.10;99.90;;;;;;5036902;28;20850;-83
2021/05/26 03:27:19;;;;;;;13.13;4.23;;;10.10;99.90;;;;;;5038304;28;20484;-83
2021/05/26 03:29:46;;;;;;;17.40;4.20;;;10.10;99.90;;;;;;5038018;28;20585;-84
2021/05/26 03:32:12;;;;;;;16.53;4.43;;;10.10;99.90;;;;;;5037784;28;20883;-84
2021/05/26 03:34:39;;;;;;;15.73;4.77;;;10.20;99.90;;;;;;5038977;28;20467;-84
2021/05/26 03:37:05;;;;;;;11.20;4.40;;;10.20;99.90;;;;;;5037764;28;20489;-85
2021/05/26 03:39:32;;;;;;;13.63;3.60;;;10.20;99.90;;;;;;5037568;28;20519;-83
2021/05/26 03:41:59;;;;;;;11.10;3.93;;;10.30;99.90;;;;;;5038257;28;20477;-84
2021/05/26 03:44:25;;;;;;;12.53;4.57;;;10.30;99.90;;;;;;5039762;28;20480;-83
2021/05/26 03:46:51;;;;;;;14.87;4.10;;;10.30;99.90;;;;;;5032967;28;20457;-84
2021/05/26 03:49:18;;;;;;;14.80;4.53;;;10.30;99.90;;;;;;5039443;28;21094;-84
2021/05/26 03:51:44;;;;;;;16.17;5.07;;;10.30;99.90;;;;;;5040122;28;20556;-84
2021/05/26 03:54:10;;;;;;;10.43;4.00;;;10.30;99.90;;;;;;5038257;28;20463;-84
2021/05/26 03:56:37;;;;;;;13.63;3.70;;;10.30;99.90;;;;;;5037441;28;20455;-84
2021/05/26 03:59:04;;;;;;;11.90;4.37;;;10.40;99.90;;;;;;5037555;28;20477;-83
2021/05/26 04:01:30;;;;;;;15.10;5.33;;;10.40;99.90;;;;;;5036481;28;20584;-83
2021/05/26 04:03:56;;;;;;;14.37;4.20;;;10.40;99.90;;;;;;5036987;28;20464;-84
2021/05/26 04:06:23;;;;;;;18.83;4.30;;;10.40;99.90;;;;;;5036699;28;20453;-84
2021/05/26 04:08:49;;;;;;;16.43;4.10;;;10.40;99.90;;;;;;5036499;28;20464;-82
2021/05/26 04:11:15;;;;;;;12.83;4.40;;;10.40;99.90;;;;;;5034625;28;20568;-83
2021/05/26 04:13:43;;;;;;;16.57;4.17;;;10.40;99.90;;;;;;5036031;28;20453;-84
2021/05/26 04:16:09;;;;;;;10.27;3.27;;;10.40;99.90;;;;;;5034915;28;20463;-83
2021/05/26 04:18:35;;;;;;;18.27;4.00;;;10.40;99.90;;;;;;5045195;28;20497;-82
2021/05/26 04:21:02;;;;;;;17.00;4.00;;;10.40;99.90;;;;;;5046063;28;20529;-82
2021/05/26 04:23:28;;;;;;;22.23;4.00;;;10.50;99.90;;;;;;5045600;28;20951;-83
2021/05/26 04:25:54;;;;;;;16.70;3.70;;;10.40;99.90;;;;;;5046335;28;20484;-83
2021/05/26 04:28:22;;;;;;;14.73;3.47;;;10.50;99.90;;;;;;5035159;28;20488;-84
2021/05/26 04:30:52;;;;;;;12.07;3.73;;;10.50;99.90;;;;;;5045882;28;20476;-84
2021/05/26 04:33:18;;;;;;;14.83;3.63;;;10.60;99.90;;;;;;5041632;28;20483;-85
2021/05/26 04:35:45;;;;;;;8.90;3.00;;;10.70;99.90;;;;;;5040243;28;20457;-86
2021/05/26 04:38:12;;;;;;;13.30;3.93;;;10.80;99.90;;;;;;5040171;28;20459;-86
2021/05/26 04:40:38;;;;;;;11.60;3.10;;;10.80;99.90;;;;;;5039337;28;20496;-84
2021/05/26 04:43:05;;;;;;;11.73;3.30;;;10.80;99.90;;;;;;5039284;28;20532;-84
2021/05/26 04:45:31;;;;;;;9.57;2.57;;;10.80;99.90;;;;;;5039497;28;20456;-85
2021/05/26 04:47:59;;;;;;;12.17;3.00;;;10.80;99.90;;;;;;5039790;28;20532;-86
2021/05/26 04:50:26;;;;;;;8.97;3.20;;;10.70;99.90;;;;;;5043246;28;20480;-85
2021/05/26 04:52:52;;;;;;;7.07;2.37;;;10.70;99.90;;;;;;5043676;28;20516;-86
2021/05/26 04:55:18;;;;;;;8.30;2.47;;;10.80;99.90;;;;;;5044034;28;20456;-84
2021/05/26 04:57:46;;;;;;;12.97;3.07;;;10.70;99.90;;;;;;5044489;28;20453;-85
2021/05/26 05:00:13;;;;;;;9.93;2.67;;;10.80;99.90;;;;;;5043091;28;20984;-85
2021/05/26 05:02:39;;;;;;;15.03;9.17;;;10.80;99.90;;;;;;5042859;28;20456;-84
2021/05/26 05:05:07;;;;;;;12.17;2.30;;;10.70;99.90;;;;;;5045726;28;20548;-84
2021/05/26 05:07:34;;;;;;;8.77;2.40;;;10.70;99.90;;;;;;5046417;28;20448;-84
2021/05/26 05:10:01;;;;;;;9.00;2.80;;;10.60;99.90;;;;;;5043434;28;20475;-84
2021/05/26 05:12:27;;;;;;;10.33;2.57;;;10.60;99.90;;;;;;5041181;28;20483;-84
2021/05/26 05:14:54;;;;;;;8.23;2.60;;;10.60;99.90;;;;;;5040268;28;20463;-86
2021/05/26 05:17:20;;;;;;;8.97;2.37;;;10.60;99.90;;;;;;5042719;28;21035;-85
2021/05/26 05:19:46;;;;;;;8.83;2.83;;;10.60;99.90;;;;;;5042862;28;20494;-85
2021/05/26 05:22:13;;;;;;;9.70;2.60;;;10.60;99.90;;;;;;5041992;28;20992;-85
2021/05/26 05:24:40;;;;;;;8.57;2.60;;;10.70;99.90;;;;;;5042764;28;20455;-84
2021/05/26 05:27:07;;;;;;;9.60;2.77;;;10.70;99.90;;;;;;5043132;28;20520;-84
2021/05/26 05:29:33;;;;;;;13.53;2.43;;;10.70;99.90;;;;;;5041940;28;20989;-84
2021/05/26 05:31:59;;;;;;;12.83;2.40;;;10.80;99.90;;;;;;5040760;28;20471;-85
2021/05/26 05:34:25;;;;;;;9.13;2.40;;;10.90;99.90;;;;;;5041631;28;20952;-85
2021/05/26 05:36:52;;;;;;;9.57;1.70;;;10.90;99.90;;;;;;5041322;28;20478;-86
2021/05/26 05:39:19;;;;;;;14.10;2.07;;;10.80;99.90;;;;;;5041202;28;21091;-86
2021/05/26 05:41:46;;;;;;;8.30;2.30;;;10.80;99.90;;;;;;5041124;28;20469;-84
2021/05/26 05:44:12;;;;;;;8.17;2.23;;;10.80;99.90;;;;;;5040658;28;20444;-85
2021/05/26 05:46:39;;;;;;;7.87;2.03;;;10.90;99.90;;;;;;5039729;28;20520;-84
2021/05/26 05:49:05;;;;;;;12.87;2.60;;;10.90;99.90;;;;;;5041896;28;20602;-84
2021/05/26 05:51:32;;;;;;;7.53;2.07;;;10.90;99.90;;;;;;5039764;28;20530;-84
2021/05/26 05:53:58;;;;;;;7.17;1.83;;;11.00;99.90;;;;;;5042533;28;20544;-84
2021/05/26 05:56:26;;;;;;;8.00;1.80;;;11.10;99.90;;;;;;5040233;28;20453;-83
2021/05/26 05:58:53;;;;;;;7.90;2.00;;;11.10;99.90;;;;;;5043734;28;20510;-84
2021/05/26 06:03:47;;;;;;;10.40;2.20;;;11.20;99.90;;;;;;5014090;28;21033;-85
2021/05/26 06:06:13;;;;;;;9.60;2.80;;;11.40;99.90;;;;;;5015069;28;21073;-84
2021/05/26 06:08:40;;;;;;;8.20;2.37;;;11.50;99.90;;;;;;5016785;28;20446;-84
2021/05/26 06:11:07;;;;;;;9.93;2.50;;;11.50;99.90;;;;;;5014430;28;20453;-84
2021/05/26 06:13:35;;;;;;;8.47;2.20;;;11.60;99.90;;;;;;5014225;28;20469;-82
2021/05/26 06:16:01;;;;;;;7.10;2.00;;;11.50;99.90;;;;;;5017832;28;20445;-80
2021/05/26 06:18:27;;;;;;;8.40;2.40;;;11.70;99.90;;;;;;5020982;28;20537;-82
2021/05/26 06:20:54;;;;;;;7.90;2.27;;;11.70;99.90;;;;;;5019039;28;20449;-82
2021/05/26 06:23:20;;;;;;;10.60;3.00;;;11.70;99.90;;;;;;5016590;28;20487;-82
2021/05/26 06:25:46;;;;;;;28.13;25.42;;;11.60;99.90;;;;;;5016245;28;20478;-84
2021/05/26 06:28:13;;;;;;;8.03;2.03;;;11.80;99.90;;;;;;5016422;28;20742;-85
2021/05/26 06:30:40;;;;;;;10.57;2.90;;;11.80;99.90;;;;;;5015538;28;20437;-85
2021/05/26 06:33:06;;;;;;;9.17;2.20;;;12.00;99.90;;;;;;5014454;28;20477;-84
2021/05/26 06:35:33;;;;;;;9.97;2.20;;;12.20;99.90;;;;;;5016187;28;20557;-86
2021/05/26 06:37:59;;;;;;;8.60;1.90;;;12.30;99.90;;;;;;5014619;28;20454;-85
2021/05/26 06:40:25;;;;;;;9.90;1.90;;;12.40;99.90;;;;;;5014743;28;20634;-84
2021/05/26 06:42:51;;;;;;;10.13;1.80;;;12.60;99.90;;;;;;5014482;28;20469;-84
2021/05/26 06:45:18;;;;;;;11.27;2.10;;;12.70;99.90;;;;;;5019010;28;20500;-85
2021/05/26 06:47:45;;;;;;;9.53;1.90;;;12.50;99.90;;;;;;5018965;28;20457;-83
2021/05/26 06:50:12;;;;;;;8.70;2.03;;;12.60;99.90;;;;;;5018219;28;20472;-86
2021/05/26 06:52:38;;;;;;;8.27;1.57;;;12.70;99.90;;;;;;5019112;28;20481;-84
2021/05/26 06:55:06;;;;;;;8.40;1.47;;;12.90;99.90;;;;;;5019851;28;20507;-85
2021/05/26 06:57:32;;;;;;;7.93;1.60;;;13.00;99.90;;;;;;5020020;28;20542;-84
2021/05/26 06:59:58;;;;;;;8.60;1.80;;;12.90;99.90;;;;;;5021250;28;20644;-84
2021/05/26 07:02:25;;;;;;;8.50;1.67;;;12.90;99.90;;;;;;5014584;28;20477;-85
2021/05/26 07:04:52;;;;;;;12.13;2.03;;;13.00;99.90;;;;;;5017840;28;20532;-85
2021/05/26 07:07:18;;;;;;;9.53;1.50;;;12.80;99.90;;;;;;5018505;28;20532;-84
2021/05/26 07:09:44;;;;;;;9.77;1.40;;;12.70;99.90;;;;;;5018358;28;20445;-84
2021/05/26 07:12:11;;;;;;;9.20;1.30;;;12.80;99.90;;;;;;5015245;28;20557;-85
2021/05/26 07:14:39;;;;;;;8.87;1.57;;;12.90;99.90;;;;;;5011760;28;20458;-84
2021/05/26 07:17:05;;;;;;;9.83;2.00;;;13.00;99.90;;;;;;5006984;28;20457;-84
2021/05/26 07:19:32;;;;;;;9.27;1.87;;;13.20;99.90;;;;;;5018830;28;20486;-84
2021/05/26 07:21:59;;;;;;;8.30;1.20;;;13.40;99.90;;;;;;5017401;28;20843;-85
2021/05/26 07:24:25;;;;;;;8.90;1.57;;;13.60;99.90;;;;;;5019138;28;20899;-84
2021/05/26 07:26:51;;;;;;;8.07;1.30;;;13.50;99.90;;;;;;5017488;28;20529;-84
2021/05/26 07:29:18;;;;;;;11.03;1.70;;;13.40;99.90;;;;;;5015653;28;20460;-84
2021/05/26 07:35:06;;;;;;;9.53;1.30;;;13.50;99.90;;;;;;4992044;28;21068;-84
2021/05/26 07:37:34;;;;;;;9.47;1.43;;;13.70;99.90;;;;;;5016242;28;20669;-82
2021/05/26 07:40:01;;;;;;;11.23;1.53;;;14.20;99.90;;;;;;5015787;28;20496;-83
2021/05/26 07:42:27;;;;;;;9.30;1.10;;;14.30;99.90;;;;;;5014207;28;20484;-84
2021/05/26 07:44:54;;;;;;;9.60;1.20;;;14.40;99.90;;;;;;5013688;28;20557;-83
2021/05/26 07:47:22;;;;;;;10.37;1.40;;;14.50;99.90;;;;;;5017096;28;20554;-82
2021/05/26 07:49:48;;;;;;;14.27;1.83;;;14.60;99.90;;;;;;5018520;28;20489;-84
2021/05/26 07:52:19;;;;;;;10.07;1.13;;;14.70;99.90;;;;;;5016556;28;20482;-84
2021/05/26 07:54:46;;;;;;;8.30;1.10;;;14.70;99.90;;;;;;4999115;28;20451;-84
2021/05/26 07:57:13;;;;;;;11.20;1.30;;;14.80;99.90;;;;;;5006745;28;20458;-83
2021/05/26 07:59:39;;;;;;;11.40;1.40;;;14.70;99.90;;;;;;5018147;28;20481;-84
2021/05/26 08:02:07;;;;;;;10.97;1.27;;;14.80;99.90;;;;;;5016917;28;20560;-83
2021/05/26 08:04:33;;;;;;;11.47;1.27;;;15.30;99.90;;;;;;5017601;28;20457;-84
2021/05/26 08:07:00;;;;;;;15.03;1.57;;;15.60;99.90;;;;;;5017313;28;20532;-84
2021/05/26 08:09:26;;;;;;;11.23;1.50;;;15.60;99.90;;;;;;5016229;28;20457;-84
2021/05/26 08:11:53;;;;;;;10.67;1.33;;;15.60;99.90;;;;;;5015538;28;20505;-83
2021/05/26 08:14:20;;;;;;;10.40;1.37;;;15.80;99.90;;;;;;5022968;28;20483;-83
2021/05/26 08:16:46;;;;;;;13.50;2.87;;;15.80;99.90;;;;;;5026240;28;20456;-85
2021/05/26 08:19:13;;;;;;;11.60;1.87;;;15.80;99.90;;;;;;5015273;28;20577;-82
2021/05/26 08:21:39;;;;;;;13.30;1.73;;;15.90;99.90;;;;;;5028019;28;20918;-84
2021/05/26 08:24:07;;;;;;;11.37;1.60;;;15.70;99.90;;;;;;5028769;28;20442;-87
2021/05/26 08:26:35;;;;;;;9.00;1.33;;;15.80;99.90;;;;;;5035254;28;20460;-87
2021/05/26 08:29:04;;;;;;;11.83;1.53;;;16.00;99.90;;;;;;5041695;28;20442;-84
2021/05/26 08:31:31;;;;;;;14.03;1.20;;;16.80;99.90;;;;;;5039449;28;20813;-85
2021/05/26 08:33:58;;;;;;;15.00;3.50;;;17.10;99.90;;;;;;5036825;28;20457;-87
2021/05/26 08:36:24;;;;;;;45.73;37.90;;;17.20;99.90;;;;;;5034456;28;20469;-85
2021/05/26 08:38:52;;;;;;;648.20;607.37;;;17.90;99.90;;;;;;5043133;28;20486;-86
2021/05/26 08:41:21;;;;;;;391.97;358.70;;;17.50;99.90;;;;;;5036625;28;20445;-87
2021/05/26 08:43:48;;;;;;;1999.90;999.90;;;17.10;99.90;;;;;;5055705;28;20441;-86
2021/05/26 08:46:16;;;;;;;1999.90;999.90;;;17.00;99.90;;;;;;5027154;28;20451;-86
2021/05/26 08:48:43;;;;;;;304.70;278.93;;;17.10;99.90;;;;;;5036512;28;20488;-84
2021/05/26 08:51:11;;;;;;;249.93;189.53;;;17.50;99.90;;;;;;5022591;28;20458;-85
2021/05/26 08:53:38;;;;;;;1537.10;852.90;;;17.40;99.90;;;;;;5021464;28;20453;-84
2021/05/26 08:56:05;;;;;;;436.93;404.63;;;17.00;99.90;;;;;;5018803;28;20533;-84
2021/05/26 08:58:37;;;;;;;1482.27;802.13;;;17.20;99.90;;;;;;5017453;28;20987;-85
2021/05/26 09:01:04;;;;;;;1024.90;668.70;;;17.30;99.90;;;;;;5017794;28;20466;-85
2021/05/26 09:03:31;;;;;;;54.23;46.43;;;16.70;99.90;;;;;;5018283;28;20508;-84
2021/05/26 09:05:58;;;;;;;397.17;373.73;;;16.60;99.90;;;;;;5026248;28;21063;-84
2021/05/26 09:08:25;;;;;;;584.50;548.33;;;16.20;99.90;;;;;;5019494;28;20458;-85
2021/05/26 09:10:55;;;;;;;60.57;54.90;;;16.40;99.90;;;;;;5035959;28;20460;-85
2021/05/26 09:13:30;;;;;;;8.83;1.50;;;16.80;99.90;;;;;;5020250;28;20476;-85
2021/05/26 09:15:56;;;;;;;5.73;1.10;;;18.00;99.90;;;;;;5007103;28;20466;-85
2021/05/26 09:18:23;;;;;;;4.30;1.03;;;19.90;99.90;;;;;;4996774;28;20454;-85
2021/05/26 09:20:50;;;;;;;4.30;1.00;;;21.20;99.90;;;;;;5016413;28;20508;-82
2021/05/26 09:23:19;;;;;;;4.90;2.20;;;20.90;99.90;;;;;;5016557;28;20556;-85
2021/05/26 09:25:54;;;;;;;4.60;0.90;;;19.60;99.90;;;;;;5032060;28;20452;-85
2021/05/26 09:28:29;;;;;;;5.17;0.90;;;18.40;99.90;;;;;;5014711;28;20535;-84
2021/05/26 09:31:02;;;;;;;5.47;1.53;;;17.80;99.90;;;;;;5024842;28;20465;-84
2021/05/26 09:33:38;;;;;;;4.90;1.07;;;17.20;99.90;;;;;;5017570;28;20481;-84
2021/05/26 09:36:27;;;;;;;4.40;0.90;;;18.10;99.90;;;;;;5003187;28;20449;-84
2021/05/26 09:38:56;;;;;;;3.83;0.90;;;20.80;99.90;;;;;;5008977;28;20508;-84
2021/05/26 09:41:24;;;;;;;4.30;0.80;;;23.00;99.90;;;;;;5009288;28;20505;-84
2021/05/26 09:43:51;;;;;;;5.17;0.90;;;25.20;99.90;;;;;;5005386;28;20587;-84
2021/05/26 09:46:20;;;;;;;4.50;0.90;;;25.20;99.50;;;;;;5022684;28;20449;-83
2021/05/26 09:49:03;;;;;;;4.60;1.10;;;24.50;96.50;;;;;;5027589;28;20449;-84
2021/05/26 09:51:32;;;;;;;3.90;0.90;;;23.80;97.50;;;;;;5024088;28;20477;-84
2021/05/26 09:54:14;;;;;;;5.47;1.17;;;22.10;97.60;;;;;;5029700;28;20456;-83
2021/05/26 09:56:41;;;;;;;7.13;1.87;;;21.70;97.00;;;;;;5002398;28;20455;-84
2021/05/26 09:59:08;;;;;;;4.50;1.03;;;22.40;99.90;;;;;;5013933;28;20485;-84
2021/05/26 10:01:35;;;;;;;4.37;0.90;;;24.10;99.90;;;;;;5021639;28;20482;-83
2021/05/26 10:04:02;;;;;;;5.43;1.10;;;24.90;93.30;;;;;;5022696;28;20511;-83
2021/05/26 10:06:30;;;;;;;4.93;0.90;;;23.80;91.90;;;;;;5022397;28;20476;-83
2021/05/26 10:08:57;;;;;;;7.10;1.30;;;22.70;92.40;;;;;;5014622;28;20453;-84
2021/05/26 10:11:26;;;;;;;4.20;1.00;;;22.00;94.50;;;;;;5015483;28;20461;-84
2021/05/26 10:13:54;;;;;;;5.70;1.00;;;21.90;95.70;;;;;;5022185;28;20533;-83
2021/05/26 10:16:22;;;;;;;5.50;1.20;;;21.70;96.80;;;;;;5022292;28;20458;-85
2021/05/26 10:18:49;;;;;;;5.30;1.10;;;23.20;99.90;;;;;;5023354;28;20536;-84
2021/05/26 10:21:20;;;;;;;4.60;1.00;;;24.70;95.90;;;;;;5021809;28;20458;-82
2021/05/26 10:23:52;;;;;;;4.00;0.97;;;26.00;91.20;;;;;;5021519;28;20457;-82
2021/05/26 10:26:54;;;;;;;5.93;1.00;;;27.00;89.50;;;;;;5016709;28;20460;-85
2021/05/26 10:29:43;;;;;;;3.90;0.73;;;28.30;79.20;;;;;;5022958;28;20926;-86
2021/05/26 10:32:25;;;;;;;3.77;0.87;;;30.40;72.80;;;;;;5015003;28;20466;-85
2021/05/26 10:35:05;;;;;;;4.43;0.90;;;30.60;71.30;;;;;;5022606;28;20832;-84
2021/05/26 10:37:33;;;;;;;5.30;1.17;;;30.70;67.20;;;;;;5021224;28;20457;-83
2021/05/26 10:40:22;;;;;;;3.80;1.00;;;31.60;68.00;;;;;;5037505;28;20536;-84
2021/05/26 10:42:48;;;;;;;3.70;0.87;;;31.20;63.40;;;;;;5025469;28;20556;-82
2021/05/26 10:45:19;;;;;;;4.60;1.20;;;31.30;65.30;;;;;;5026143;28;20809;-82
2021/05/26 10:47:47;;;;;;;3.83;0.80;;;30.50;61.30;;;;;;5023873;28;20454;-83
2021/05/26 10:50:20;;;;;;;4.47;1.03;;;30.10;61.10;;;;;;5030351;28;20442;-84
2021/05/26 10:53:12;;;;;;;4.33;1.10;;;30.30;58.30;;;;;;5025747;28;20489;-83
2021/05/26 10:55:40;;;;;;;4.63;0.90;;;29.30;57.10;;;;;;5033827;28;20465;-83
2021/05/26 10:58:18;;;;;;;11.33;3.90;;;28.70;57.50;;;;;;5034467;28;20430;-84
2021/05/26 11:00:45;;;;;;;4.47;0.90;;;30.10;60.20;;;;;;5029520;28;20616;-83
2021/05/26 11:03:28;;;;;;;3.43;0.80;;;31.00;57.30;;;;;;5030142;28;20473;-84
2021/05/26 11:05:56;;;;;;;3.60;0.93;;;30.20;54.00;;;;;;5031563;28;20446;-84
2021/05/26 11:08:43;;;;;;;3.70;0.90;;;29.50;55.60;;;;;;5028222;28;20509;-85
2021/05/26 11:11:48;;;;;;;4.90;1.80;;;28.80;56.50;;;;;;5025825;28;20860;-83
2021/05/26 11:14:29;;;;;;;4.00;1.00;;;28.50;57.80;;;;;;5023998;28;20473;-85
2021/05/26 11:17:20;;;;;;;4.67;1.40;;;29.00;57.50;;;;;;5025271;28;20449;-84
2021/05/26 11:19:46;;;;;;;4.40;0.93;;;28.20;59.70;;;;;;5029185;28;20477;-84
2021/05/26 11:22:15;;;;;;;3.90;1.07;;;27.90;59.60;;;;;;5029427;28;20449;-83
2021/05/26 11:24:43;;;;;;;4.30;1.10;;;27.60;58.40;;;;;;5030343;28;20453;-84
2021/05/26 11:27:19;;;;;;;4.30;1.00;;;26.80;58.40;;;;;;5027387;28;20517;-83
2021/05/26 11:29:49;;;;;;;5.00;1.00;;;25.00;58.10;;;;;;5027529;28;20795;-82
2021/05/26 11:32:18;;;;;;;5.90;1.13;;;24.00;60.80;;;;;;5027344;28;20539;-81
2021/05/26 11:34:46;;;;;;;4.30;1.03;;;23.90;65.80;;;;;;5026627;28;20883;-82
2021/05/26 11:37:25;;;;;;;3.80;1.00;;;25.40;61.90;;;;;;5031120;28;20922;-85
2021/05/26 11:39:55;;;;;;;3.80;0.90;;;27.90;62.90;;;;;;5026670;28;20505;-84
2021/05/26 11:42:25;;;;;;;3.40;0.80;;;29.90;62.20;;;;;;5029419;28;20496;-83
2021/05/26 11:44:57;;;;;;;4.53;1.40;;;28.80;58.70;;;;;;5041008;28;20445;-82
2021/05/26 11:47:34;;;;;;;4.67;1.00;;;28.20;59.40;;;;;;5025336;28;20466;-84
2021/05/26 11:50:01;;;;;;;4.53;1.10;;;30.00;60.10;;;;;;5025186;28;20444;-83
2021/05/26 11:52:28;;;;;;;3.50;0.90;;;29.20;58.80;;;;;;5024418;28;20465;-84
2021/05/26 11:54:55;;;;;;;3.70;0.83;;;30.20;59.10;;;;;;5025658;28;20466;-84
2021/05/26 11:57:32;;;;;;;3.40;0.83;;;32.00;58.50;;;;;;5024307;28;20580;-85
2021/05/26 11:59:59;;;;;;;4.20;1.20;;;31.40;56.60;;;;;;5038773;28;20469;-84
2021/05/26 12:02:25;;;;;;;3.80;0.97;;;30.10;55.70;;;;;;5040442;28;20849;-84
2021/05/26 12:04:52;;;;;;;6.53;1.00;;;29.60;57.40;;;;;;5022478;28;20442;-83
2021/05/26 12:07:26;;;;;;;4.23;1.27;;;27.60;55.70;;;;;;5024932;28;20460;-82
2021/05/26 12:09:56;;;;;;;4.20;1.00;;;26.30;57.20;;;;;;5089761;22;20948;-81
2021/05/26 12:12:24;;;;;;;4.10;1.20;;;25.50;60.60;;;;;;5054182;28;20440;-82
2021/05/26 12:14:51;;;;;;;8.60;1.30;;;25.40;61.10;;;;;;5056549;28;20492;-81
2021/05/26 12:17:17;;;;;;;4.57;1.00;;;24.00;61.00;;;;;;5055250;28;20446;-81
2021/05/26 12:19:44;;;;;;;7.67;1.20;;;23.40;65.50;;;;;;5056442;28;20480;-81
2021/05/26 12:22:17;;;;;;;4.43;1.17;;;23.00;65.80;;;;;;5054364;28;20452;-83
2021/05/26 12:24:54;;;;;;;4.10;1.10;;;22.40;66.80;;;;;;5055862;28;20494;-81
2021/05/26 12:27:41;;;;;;;5.20;1.20;;;21.60;66.60;;;;;;5054403;28;21018;-83
2021/05/26 12:30:17;;;;;;;4.90;1.00;;;21.00;67.70;;;;;;5054439;28;21037;-81
2021/05/26 12:32:44;;;;;;;4.50;1.20;;;20.40;72.00;;;;;;5049592;28;20523;-83
2021/05/26 12:35:15;;;;;;;5.40;1.30;;;19.80;73.20;;;;;;5054232;28;20543;-82
2021/05/26 12:37:43;;;;;;;4.77;1.17;;;19.70;79.00;;;;;;5055867;28;20530;-81
2021/05/26 12:40:16;;;;;;;4.07;0.90;;;19.60;86.80;;;;;;5055780;28;20845;-82
2021/05/26 12:42:44;;;;;;;4.40;1.23;;;20.10;91.70;;;;;;5055903;28;20492;-81
2021/05/26 12:45:24;;;;;;;5.20;1.03;;;20.30;92.60;;;;;;5056373;28;20544;-82
2021/05/26 12:47:50;;;;;;;4.20;1.10;;;19.80;97.50;;;;;;5056044;28;20436;-82
2021/05/26 12:50:19;;;;;;;4.40;1.50;;;19.30;96.50;;;;;;5055866;28;20987;-81
2021/05/26 12:52:50;;;;;;;4.30;1.10;;;18.60;94.80;;;;;;5056785;28;20456;-82
2021/05/26 12:55:17;;;;;;;4.53;1.30;;;18.40;99.90;;;;;;5057428;28;20466;-84
2021/05/26 12:57:46;;;;;;;4.67;1.40;;;18.10;99.90;;;;;;5040388;28;20452;-82